Santa Monica Airport

About
Name: Santa Monica Airport
Identifier:  SMO/KSMO
Serves:  Southern California
Owner:  City of Santa Monica
Operator:  Santa Monica Airport Commission
Public/Private:  Public
Local Time:  16. Sep 21:13 PDT
Description: Santa Monica Airport is a general aviation airport largely in Santa Monica, California. The airport is about 2 miles from the Pacific Ocean and 6 miles north of Los Angeles International Airport. The FAA's National Plan of Integrated Airport Systems for 2009–2013 categorized it as a reliever airport. The airport is scheduled to remain open until 2029.
Source: Wikipedia
Location
Santa Monica
  United States

Runways
Identifier Length (m/ft) Surface
3/21 3,500/3,500 Asphalt
Statistics
Flights per Day:
0 flights
Distance: 21km (13mi)
Flights delayed:
0% (0 flights per day delayed)
Delay Average: 1855 minutes
Current Weather
 21 C (Humidity: 77%)
  6kt (11km/h / 6mph) from 240°
  16km (10 mi.)
 
 METAR KSMO 170251Z 24006KT 10SM CLR 21/17 A2987 RMK AO2 SLP112 T02060172 55001

Current Delays

Departures
N/A
Arrivals
N/A

Destinations

Top Destinations
Airport Flights
per week
Seats
per week
  Van Nuys (VNY) 0 - 0 0

Airlines & Planes

Top Airlines
Airline Flights
per Day
Seats
per Day
Gama Aviation 0 -
Top Plane Types
Model Flights Seats
Beech B300 Super King Air 350 0.1/day - 0